Renault, Illinois
Current Conditions -  °F | °C
As of 7:35 PM on Monday 20 Oct 2014 (Local Time) from KSAR Reporting Station
Clear Clear  
Wind Chill: 63°   Ceiling: Unl
Heat Index: 63°   Visibility: 10mi
Dew Point: 43°   Wind: 5mph
Humidity: 49%   Direction: 340°NNW
Pressure: 29.99"   Gusts: NA
Location:  38.15°N, 90.13°W
Report Text: KSAR 210035Z AUTO 34004KT 10SM CLR 17/06 A2999 RMK AO2 T01700063
Loading
Personal Weather Stations






























Interactive Weather Map
Tropical Storm Tracking
New forecast layout! Learn more

10-Day Weather Forecast

Advertisements
Track Severe Weather on mobile